Time;durP1;ratioP1;P1;durP2;ratioP2;P2;SDS_P1;SDS_P2;PMS_P1;PMS_P2;Temp;Humidity;BMP_temperature;BMP_pressure;BME280_temperature;BME280_humidity;BME280_pressure;Samples;Min_cycle;Max_cycle;Signal;HPM_P1;HPM_P2
2023/09/30 00:01:38;;;;;;;;;;;;;;;17.11;66.87;100592.56;108884;275;92192;-59
2023/09/30 00:04:14;;;;;;;;;;;;;;;17.09;66.91;100594.25;108732;275;96277;-59
2023/09/30 00:06:54;;;;;;;;;;;;;;;17.08;67.01;100589.55;107784;275;119489;-55
2023/09/30 00:09:27;;;;;;;;;;;;;;;17.08;67.09;100588.96;107660;275;104089;-55
2023/09/30 00:12:00;;;;;;;;;;;;;;;17.08;66.95;100586.33;108529;275;113700;-59
2023/09/30 00:14:38;;;;;;;;;;;;;;;17.08;66.91;100585.85;108782;275;93165;-59
2023/09/30 00:17:19;;;;;;;;;;;;;;;17.07;67.07;100588.95;107827;275;95620;-58
2023/09/30 00:19:54;;;;;;;;;;;;;;;17.08;67.07;100583.72;107680;275;120974;-58
2023/09/30 00:22:31;;;;;;;;;;;;;;;17.09;67.04;100590.55;107712;275;104963;-57
2023/09/30 00:25:06;;;;;;;;;;;;;;;17.07;67.18;100587.95;107659;275;114907;-56
2023/09/30 00:27:43;;;;;;;;;;;;;;;17.06;67.17;100582.61;107681;275;93306;-56
2023/09/30 00:30:13;;;;;;;;;;;;;;;17.04;67.19;100583.31;107730;275;96532;-56
2023/09/30 00:32:50;;;;;;;;;;;;;;;17.03;67.09;100581.61;107705;275;119894;-57
2023/09/30 00:35:20;;;;;;;;;;;;;;;17.00;67.12;100581.59;107678;275;104918;-54
2023/09/30 00:38:02;;;;;;;;;;;;;;;16.99;67.14;100577.23;107534;275;115076;-54
2023/09/30 00:40:35;;;;;;;;;;;;;;;16.96;67.25;100580.24;107704;275;94507;-55
2023/09/30 00:43:23;;;;;;;;;;;;;;;16.95;67.26;100579.45;107453;275;98134;-55
2023/09/30 00:46:09;;;;;;;;;;;;;;;16.95;67.39;100584.30;107678;275;119853;-55
2023/09/30 00:48:42;;;;;;;;;;;;;;;16.95;67.36;100580.46;107697;275;105131;-54
2023/09/30 00:51:16;;;;;;;;;;;;;;;16.95;67.57;100580.59;107704;275;114808;-58
2023/09/30 00:53:54;;;;;;;;;;;;;;;16.94;67.66;100574.68;107705;275;94532;-58
2023/09/30 00:56:30;;;;;;;;;;;;;;;16.94;67.73;100578.52;107712;275;97259;-57
2023/09/30 00:59:03;;;;;;;;;;;;;;;16.95;67.86;100576.48;107732;275;120591;-59
2023/09/30 01:01:37;;;;;;;;;;;;;;;16.93;68.25;100573.48;107710;275;106111;-55
2023/09/30 01:04:10;;;;;;;;;;;;;;;16.90;68.56;100580.77;107757;275;113846;-54
2023/09/30 01:06:47;;;;;;;;;;;;;;;16.88;69.01;100584.62;108360;275;94218;-60
2023/09/30 01:09:23;;;;;;;;;;;;;;;16.86;69.33;100592.33;108606;275;95839;-60
2023/09/30 01:11:57;;;;;;;;;;;;;;;16.83;69.63;100590.72;107778;275;119801;-57
2023/09/30 01:14:35;;;;;;;;;;;;;;;16.80;70.09;100598.85;107668;275;104455;-57
2023/09/30 01:17:13;;;;;;;;;;;;;;;16.77;70.49;100593.72;107700;275;115510;-57
2023/09/30 01:19:46;;;;;;;;;;;;;;;16.73;70.64;100586.65;107601;275;96241;-57
2023/09/30 01:22:23;;;;;;;;;;;;;;;16.72;70.94;100579.58;107712;275;97155;-57
2023/09/30 01:24:55;;;;;;;;;;;;;;;16.74;71.08;100578.25;107676;275;119569;-57
2023/09/30 01:27:28;;;;;;;;;;;;;;;16.78;71.31;100581.76;107660;275;106217;-56
2023/09/30 01:30:01;;;;;;;;;;;;;;;16.76;71.49;100578.27;107690;275;113673;-55
2023/09/30 01:32:43;;;;;;;;;;;;;;;16.73;71.61;100574.48;108469;275;96161;-59
2023/09/30 01:35:18;;;;;;;;;;;;;;;16.70;71.81;100574.30;108469;275;96274;-59
2023/09/30 01:37:54;;;;;;;;;;;;;;;16.73;71.97;100575.58;108525;275;120682;-58
2023/09/30 01:40:37;;;;;;;;;;;;;;;16.73;72.01;100568.20;108592;276;103805;-58
2023/09/30 01:43:17;;;;;;;;;;;;;;;16.78;71.98;100567.18;108528;277;112864;-59
2023/09/30 01:45:52;;;;;;;;;;;;;;;16.82;71.92;100565.70;108303;275;93800;-56
2023/09/30 01:48:32;;;;;;;;;;;;;;;16.83;71.97;100565.95;107750;275;97202;-57
2023/09/30 01:51:10;;;;;;;;;;;;;;;16.84;72.06;100563.74;107865;275;120329;-58
2023/09/30 01:53:46;;;;;;;;;;;;;;;16.79;72.12;100562.42;108347;275;103078;-60
2023/09/30 01:56:23;;;;;;;;;;;;;;;16.76;72.41;100560.05;108184;275;112288;-54
2023/09/30 01:59:02;;;;;;;;;;;;;;;16.72;72.67;100561.81;107630;275;94028;-51
2023/09/30 02:01:33;;;;;;;;;;;;;;;16.70;72.86;100556.83;107740;275;97448;-57
2023/09/30 02:04:06;;;;;;;;;;;;;;;16.68;72.95;100557.34;107701;275;120315;-56
2023/09/30 02:06:42;;;;;;;;;;;;;;;16.64;73.05;100558.79;108217;275;104968;-58
2023/09/30 02:09:16;;;;;;;;;;;;;;;16.60;73.06;100556.35;108681;275;113652;-58
2023/09/30 02:11:52;;;;;;;;;;;;;;;16.59;73.14;100554.56;108048;275;92620;-56
2023/09/30 02:14:29;;;;;;;;;;;;;;;16.57;73.15;100550.69;107710;275;95865;-56
2023/09/30 02:17:04;;;;;;;;;;;;;;;16.57;73.09;100547.79;107720;275;121128;-57
2023/09/30 02:19:37;;;;;;;;;;;;;;;16.56;73.26;100548.27;107644;275;106071;-58
2023/09/30 02:22:15;;;;;;;;;;;;;;;16.56;73.40;100551.38;108543;275;113860;-59
2023/09/30 02:25:05;;;;;;;;;;;;;;;16.51;73.81;100556.33;108747;275;92520;-59
2023/09/30 02:27:47;;;;;;;;;;;;;;;16.48;73.85;100553.71;108531;276;98250;-59
2023/09/30 02:30:24;;;;;;;;;;;;;;;16.48;73.93;100557.75;108495;275;118445;-55
2023/09/30 02:33:01;;;;;;;;;;;;;;;16.49;74.22;100555.26;107696;275;105762;-55
2023/09/30 02:35:45;;;;;;;;;;;;;;;16.48;74.24;100553.88;107653;275;114870;-55
2023/09/30 02:38:17;;;;;;;;;;;;;;;16.50;74.35;100554.54;107707;275;96117;-56
2023/09/30 02:40:51;;;;;;;;;;;;;;;16.52;74.27;100556.41;107720;275;97383;-58
2023/09/30 02:43:26;;;;;;;;;;;;;;;16.54;74.18;100557.41;107684;275;121213;-58
2023/09/30 02:46:04;;;;;;;;;;;;;;;16.58;74.13;100558.65;107673;275;105369;-55
2023/09/30 02:48:35;;;;;;;;;;;;;;;16.60;73.99;100552.58;107618;275;116260;-54
2023/09/30 02:51:12;;;;;;;;;;;;;;;16.63;73.84;100553.61;107677;275;96809;-56
2023/09/30 02:53:48;;;;;;;;;;;;;;;16.67;73.67;100556.81;107676;275;97786;-56
2023/09/30 02:56:26;;;;;;;;;;;;;;;16.68;73.62;100554.27;107660;275;122269;-58
2023/09/30 02:58:59;;;;;;;;;;;;;;;16.69;73.86;100553.79;107686;275;105250;-57
2023/09/30 03:01:32;;;;;;;;;;;;;;;16.72;74.08;100552.01;107645;275;114235;-58
2023/09/30 03:04:12;;;;;;;;;;;;;;;16.75;74.17;100553.06;107617;275;96417;-57
2023/09/30 03:06:46;;;;;;;;;;;;;;;16.77;74.23;100554.05;107671;275;96647;-57
2023/09/30 03:09:20;;;;;;;;;;;;;;;16.80;74.42;100550.48;107667;275;120791;-56
2023/09/30 03:11:49;;;;;;;;;;;;;;;16.79;74.39;100549.91;107677;275;105361;-57
2023/09/30 03:14:24;;;;;;;;;;;;;;;16.80;74.47;100547.71;107649;275;114291;-57
2023/09/30 03:16:59;;;;;;;;;;;;;;;16.77;74.59;100547.03;107887;275;97295;-60
2023/09/30 03:19:35;;;;;;;;;;;;;;;16.74;74.70;100542.13;107920;275;98550;-59
2023/09/30 03:22:11;;;;;;;;;;;;;;;16.73;74.98;100538.77;107641;275;119343;-55
2023/09/30 03:24:46;;;;;;;;;;;;;;;16.68;75.26;100537.44;107656;276;106640;-58
2023/09/30 03:27:22;;;;;;;;;;;;;;;16.67;75.44;100541.58;107650;277;114454;-58
2023/09/30 03:29:56;;;;;;;;;;;;;;;16.63;75.69;100539.71;107642;276;96463;-57
2023/09/30 03:32:30;;;;;;;;;;;;;;;16.62;75.81;100537.33;107685;276;97772;-56
2023/09/30 03:35:05;;;;;;;;;;;;;;;16.57;76.11;100533.35;107673;276;119144;-56
2023/09/30 03:37:41;;;;;;;;;;;;;;;16.49;76.55;100528.73;107682;276;103065;-56
2023/09/30 03:40:14;;;;;;;;;;;;;;;16.47;76.71;100530.52;107677;276;114046;-55
2023/09/30 03:42:44;;;;;;;;;;;;;;;16.45;76.82;100533.70;107656;276;94708;-56
2023/09/30 03:45:21;;;;;;;;;;;;;;;16.41;76.94;100535.36;107618;276;96633;-58
2023/09/30 03:47:57;;;;;;;;;;;;;;;16.38;77.09;100529.17;107634;276;120216;-58
2023/09/30 03:50:32;;;;;;;;;;;;;;;16.36;77.23;100529.50;107684;276;102805;-56
2023/09/30 03:53:09;;;;;;;;;;;;;;;16.35;77.48;100539.27;107644;276;112651;-55
2023/09/30 03:55:42;;;;;;;;;;;;;;;16.33;77.68;100539.00;107737;276;96755;-59
2023/09/30 03:58:24;;;;;;;;;;;;;;;16.31;77.86;100539.68;107344;277;639764;-60
2023/09/30 04:00:56;;;;;;;;;;;;;;;16.30;77.83;100541.92;107853;276;118175;-58
2023/09/30 04:03:39;;;;;;;;;;;;;;;16.30;77.70;100543.30;107736;276;104779;-60
2023/09/30 04:06:15;;;;;;;;;;;;;;;16.28;77.77;100541.48;107791;276;115136;-55
2023/09/30 04:08:51;;;;;;;;;;;;;;;16.30;77.77;100541.71;107695;276;93226;-55
2023/09/30 04:11:26;;;;;;;;;;;;;;;16.30;77.77;100540.75;107733;276;97114;-58
2023/09/30 04:14:02;;;;;;;;;;;;;;;16.31;77.68;100537.67;107681;276;120158;-56
2023/09/30 04:16:38;;;;;;;;;;;;;;;16.29;77.78;100537.14;107743;276;104381;-54
2023/09/30 04:19:14;;;;;;;;;;;;;;;16.24;77.93;100535.31;107461;277;113272;-59
2023/09/30 04:21:48;;;;;;;;;;;;;;;16.21;77.99;100534.44;107793;276;94990;-59
2023/09/30 04:24:20;;;;;;;;;;;;;;;16.22;78.02;100535.08;107914;276;97259;-60
2023/09/30 04:27:03;;;;;;;;;;;;;;;16.22;77.83;100534.40;107777;276;120256;-55
2023/09/30 04:29:39;;;;;;;;;;;;;;;16.21;77.85;100536.77;107692;276;105059;-55
2023/09/30 04:32:21;;;;;;;;;;;;;;;16.23;77.82;100534.79;107672;276;114817;-56
2023/09/30 04:35:02;;;;;;;;;;;;;;;16.22;77.90;100539.02;107636;276;96817;-56
2023/09/30 04:37:40;;;;;;;;;;;;;;;16.23;77.93;100533.77;107642;277;97607;-56
2023/09/30 04:40:15;;;;;;;;;;;;;;;16.26;77.93;100531.14;107685;273;121467;-56
2023/09/30 04:42:50;;;;;;;;;;;;;;;16.30;77.69;100530.00;107662;277;105151;-57
2023/09/30 04:45:31;;;;;;;;;;;;;;;16.33;77.71;100531.36;107749;276;113647;-57
2023/09/30 04:48:02;;;;;;;;;;;;;;;16.36;77.72;100528.02;107629;277;95723;-55
2023/09/30 04:50:34;;;;;;;;;;;;;;;16.39;77.78;100528.04;107715;276;95160;-56
2023/09/30 04:53:05;;;;;;;;;;;;;;;16.38;77.98;100525.74;107728;276;119692;-56
2023/09/30 04:55:38;;;;;;;;;;;;;;;16.38;78.04;100525.32;107557;277;106132;-58
2023/09/30 04:58:16;;;;;;;;;;;;;;;16.41;78.23;100524.20;107490;277;114756;-55
2023/09/30 05:00:54;;;;;;;;;;;;;;;16.44;78.29;100524.14;107680;276;97563;-57
2023/09/30 05:03:30;;;;;;;;;;;;;;;16.45;78.31;100524.21;107677;276;96345;-56
2023/09/30 05:06:05;;;;;;;;;;;;;;;16.45;78.32;100522.73;107476;277;119431;-57
2023/09/30 05:08:37;;;;;;;;;;;;;;;16.45;78.35;100522.36;107619;277;104613;-54
2023/09/30 05:11:13;;;;;;;;;;;;;;;16.46;78.25;100525.00;107712;276;113224;-54
2023/09/30 05:13:46;;;;;;;;;;;;;;;16.49;78.16;100526.31;107464;276;96284;-54
2023/09/30 05:16:17;;;;;;;;;;;;;;;16.54;78.06;100527.30;107715;276;97800;-57
2023/09/30 05:18:50;;;;;;;;;;;;;;;16.55;78.08;100531.65;107703;276;122143;-58
2023/09/30 05:21:26;;;;;;;;;;;;;;;16.58;78.18;100535.27;107443;277;105932;-56
2023/09/30 05:24:03;;;;;;;;;;;;;;;16.61;78.17;100533.31;107683;277;114502;-57
2023/09/30 05:26:40;;;;;;;;;;;;;;;16.62;78.26;100531.88;107649;277;94315;-55
2023/09/30 05:29:16;;;;;;;;;;;;;;;16.61;78.39;100535.33;107678;277;97328;-54
2023/09/30 05:31:52;;;;;;;;;;;;;;;16.63;78.16;100537.61;107692;277;120497;-57
2023/09/30 05:34:24;;;;;;;;;;;;;;;16.62;78.40;100541.52;107758;276;104997;-57
2023/09/30 05:36:58;;;;;;;;;;;;;;;16.60;78.32;100548.17;107679;276;113124;-55
2023/09/30 05:39:37;;;;;;;;;;;;;;;16.62;78.31;100551.23;107727;276;95218;-55
2023/09/30 05:42:14;;;;;;;;;;;;;;;16.60;78.32;100557.48;107694;276;97139;-54
2023/09/30 05:44:54;;;;;;;;;;;;;;;16.60;78.58;100561.85;107710;276;120112;-54
2023/09/30 05:47:29;;;;;;;;;;;;;;;16.57;78.64;100560.84;107682;276;105891;-57
2023/09/30 05:50:06;;;;;;;;;;;;;;;16.57;78.70;100570.54;107497;277;115008;-58
2023/09/30 05:52:37;;;;;;;;;;;;;;;16.55;78.98;100580.25;107619;277;97039;-54
2023/09/30 05:55:11;;;;;;;;;;;;;;;16.53;79.17;100578.44;107704;277;97833;-56
2023/09/30 05:57:46;;;;;;;;;;;;;;;16.56;79.24;100579.58;107603;276;119581;-56
2023/09/30 06:00:28;;;;;;;;;;;;;;;16.59;79.53;100579.41;107660;276;105458;-54
2023/09/30 06:03:04;;;;;;;;;;;;;;;16.58;79.70;100583.52;107625;276;114318;-53
2023/09/30 06:05:40;;;;;;;;;;;;;;;16.60;79.76;100584.94;107715;276;96407;-54
2023/09/30 06:08:13;;;;;;;;;;;;;;;16.62;80.04;100591.34;107685;277;99316;-53
2023/09/30 06:10:50;;;;;;;;;;;;;;;16.64;80.26;100596.64;107617;276;120073;-55
2023/09/30 06:13:28;;;;;;;;;;;;;;;16.66;80.40;100599.69;107611;276;104776;-55
2023/09/30 06:16:02;;;;;;;;;;;;;;;16.70;80.27;100603.40;107666;276;113849;-55
2023/09/30 06:18:35;;;;;;;;;;;;;;;16.75;80.42;100603.93;107692;277;95792;-55
2023/09/30 06:21:12;;;;;;;;;;;;;;;16.80;80.48;100603.38;107688;276;98122;-57
2023/09/30 06:23:48;;;;;;;;;;;;;;;16.85;80.65;100603.88;107670;276;121407;-57
2023/09/30 06:26:25;;;;;;;;;;;;;;;16.90;80.76;100601.60;107691;277;105182;-59
2023/09/30 06:28:56;;;;;;;;;;;;;;;16.94;81.02;100598.31;107706;276;113690;-59
2023/09/30 06:31:30;;;;;;;;;;;;;;;16.92;81.17;100597.96;107702;276;95657;-59
2023/09/30 06:34:04;;;;;;;;;;;;;;;16.89;81.32;100597.38;107757;276;96511;-59
2023/09/30 06:36:37;;;;;;;;;;;;;;;16.86;81.61;100597.23;107936;276;120603;-58
2023/09/30 06:39:13;;;;;;;;;;;;;;;16.89;81.71;100602.29;107681;277;104062;-59
2023/09/30 06:41:43;;;;;;;;;;;;;;;16.90;82.05;100610.66;107670;276;113775;-57
2023/09/30 06:44:24;;;;;;;;;;;;;;;16.89;82.16;100612.98;107655;277;97590;-57
2023/09/30 06:46:58;;;;;;;;;;;;;;;16.91;82.26;100618.80;107637;277;96027;-57
2023/09/30 06:49:28;;;;;;;;;;;;;;;16.92;82.61;100620.02;107655;277;121745;-57
2023/09/30 06:52:06;;;;;;;;;;;;;;;16.93;82.63;100620.42;108080;277;105080;-60
2023/09/30 06:54:43;;;;;;;;;;;;;;;16.94;82.79;100619.54;107982;277;114266;-60
2023/09/30 06:57:17;;;;;;;;;;;;;;;17.00;82.74;100623.06;107472;277;96758;-56
2023/09/30 06:59:51;;;;;;;;;;;;;;;17.03;82.92;100623.92;107650;277;98351;-56
2023/09/30 07:02:22;;;;;;;;;;;;;;;17.03;82.95;100627.96;107660;277;121218;-54
2023/09/30 07:04:54;;;;;;;;;;;;;;;17.03;83.11;100634.83;107659;277;104187;-54
2023/09/30 07:07:28;;;;;;;;;;;;;;;17.03;83.14;100636.18;107668;277;114023;-55
2023/09/30 07:10:04;;;;;;;;;;;;;;;16.99;83.32;100640.93;107651;277;95847;-56
2023/09/30 07:12:37;;;;;;;;;;;;;;;17.01;83.33;100638.30;107673;276;95848;-56
2023/09/30 07:15:09;;;;;;;;;;;;;;;17.02;83.58;100645.02;107669;277;121665;-55
2023/09/30 07:17:46;;;;;;;;;;;;;;;17.04;83.63;100644.59;107697;277;104442;-55
2023/09/30 07:20:26;;;;;;;;;;;;;;;17.06;83.74;100644.20;107567;277;113364;-59
2023/09/30 07:23:00;;;;;;;;;;;;;;;17.11;83.79;100639.46;108020;277;95704;-59
2023/09/30 07:25:39;;;;;;;;;;;;;;;17.13;83.87;100640.33;108216;276;96177;-59
2023/09/30 07:28:11;;;;;;;;;;;;;;;17.16;84.05;100643.11;108249;277;119516;-59
2023/09/30 07:30:46;;;;;;;;;;;;;;;17.19;84.17;100645.56;107717;273;105362;-58
2023/09/30 07:33:18;;;;;;;;;;;;;;;17.23;84.39;100653.08;107657;277;114691;-59
2023/09/30 07:35:58;;;;;;;;;;;;;;;17.25;84.48;100652.73;107670;276;96792;-55
2023/09/30 07:38:47;;;;;;;;;;;;;;;17.27;84.84;100652.61;107813;276;96745;-59
2023/09/30 07:41:26;;;;;;;;;;;;;;;17.31;85.17;100654.92;108965;277;119813;-59
2023/09/30 07:44:06;;;;;;;;;;;;;;;17.39;85.20;100652.77;108501;276;104530;-60
2023/09/30 07:46:43;;;;;;;;;;;;;;;17.47;85.32;100653.60;108214;277;112575;-58
2023/09/30 07:49:22;;;;;;;;;;;;;;;17.55;85.53;100653.20;108044;277;96318;-60
2023/09/30 07:52:06;;;;;;;;;;;;;;;17.71;85.63;100649.52;107656;277;96009;-56
2023/09/30 07:54:40;;;;;;;;;;;;;;;17.87;85.65;100645.02;107659;277;120901;-55
2023/09/30 07:57:20;;;;;;;;;;;;;;;18.00;85.74;100647.44;107687;277;103903;-57
2023/09/30 07:59:55;;;;;;;;;;;;;;;18.20;85.80;100649.47;107453;277;117647;-57
2023/09/30 08:02:38;;;;;;;;;;;;;;;18.37;85.95;100654.98;107714;276;97323;-55
2023/09/30 08:05:12;;;;;;;;;;;;;;;18.53;85.93;100658.51;107678;276;96922;-58
2023/09/30 08:07:48;;;;;;;;;;;;;;;18.60;85.72;100659.69;108014;277;118862;-60
2023/09/30 08:10:23;;;;;;;;;;;;;;;18.71;85.43;100661.44;107586;276;103540;-56
2023/09/30 08:12:58;;;;;;;;;;;;;;;18.77;85.40;100662.56;107683;276;113870;-56
2023/09/30 08:15:34;;;;;;;;;;;;;;;18.77;85.24;100665.69;107744;276;97166;-59
2023/09/30 08:18:08;;;;;;;;;;;;;;;18.79;85.11;100669.68;108008;276;98571;-59
2023/09/30 08:20:41;;;;;;;;;;;;;;;18.76;85.15;100672.39;107571;277;117929;-55
2023/09/30 08:23:16;;;;;;;;;;;;;;;18.69;85.28;100667.84;107676;276;105955;-55
2023/09/30 08:25:50;;;;;;;;;;;;;;;18.68;85.35;100666.80;107677;276;113342;-54
2023/09/30 08:28:26;;;;;;;;;;;;;;;18.76;85.19;100671.20;107495;277;96279;-55
2023/09/30 08:30:58;;;;;;;;;;;;;;;18.81;85.45;100668.52;107786;277;97439;-56
2023/09/30 08:33:40;;;;;;;;;;;;;;;18.89;85.51;100667.58;107628;277;121041;-57
2023/09/30 08:36:19;;;;;;;;;;;;;;;18.94;85.50;100664.67;107804;276;105183;-59
2023/09/30 08:38:58;;;;;;;;;;;;;;;18.97;85.41;100663.60;107942;276;114610;-59
2023/09/30 08:41:34;;;;;;;;;;;;;;;18.97;85.34;100669.25;107653;277;98186;-59
2023/09/30 08:44:11;;;;;;;;;;;;;;;18.95;85.36;100672.53;107886;276;96668;-59
2023/09/30 08:46:45;;;;;;;;;;;;;;;18.91;85.27;100673.80;107700;277;119691;-56
2023/09/30 08:49:21;;;;;;;;;;;;;;;18.85;85.25;100675.58;107724;277;105598;-62
2023/09/30 08:51:56;;;;;;;;;;;;;;;18.82;85.36;100672.45;107667;276;114688;-57
2023/09/30 08:54:30;;;;;;;;;;;;;;;18.77;85.22;100676.48;107670;276;94420;-58
2023/09/30 08:57:04;;;;;;;;;;;;;;;18.67;85.46;100681.77;107708;269;96820;-57
2023/09/30 08:59:41;;;;;;;;;;;;;;;18.61;85.48;100690.58;107674;277;121609;-57
2023/09/30 09:02:13;;;;;;;;;;;;;;;18.54;85.61;100689.17;107796;276;106268;-59
2023/09/30 09:04:49;;;;;;;;;;;;;;;18.51;85.62;100684.85;107812;276;112382;-59
2023/09/30 09:07:22;;;;;;;;;;;;;;;18.52;85.76;100689.52;107668;276;96350;-54
2023/09/30 09:10:08;;;;;;;;;;;;;;;18.50;85.87;100695.80;107668;276;98268;-55
2023/09/30 09:12:39;;;;;;;;;;;;;;;18.45;86.02;100695.33;107698;277;121152;-56
2023/09/30 09:15:25;;;;;;;;;;;;;;;18.45;86.23;100699.69;107684;276;105139;-57
2023/09/30 09:18:00;;;;;;;;;;;;;;;18.42;86.34;100697.62;107658;276;114728;-56
2023/09/30 09:20:30;;;;;;;;;;;;;;;18.41;86.39;100701.38;107683;277;97439;-58
2023/09/30 09:23:00;;;;;;;;;;;;;;;18.39;86.47;100701.66;107657;277;95703;-57
2023/09/30 09:25:41;;;;;;;;;;;;;;;18.41;86.46;100699.52;107742;277;120682;-59
2023/09/30 09:28:15;;;;;;;;;;;;;;;18.40;86.55;100699.16;107729;277;103899;-59
2023/09/30 09:30:50;;;;;;;;;;;;;;;18.40;86.67;100703.00;107588;277;115486;-57
2023/09/30 09:33:35;;;;;;;;;;;;;;;18.40;86.90;100699.58;107669;276;95054;-57
2023/09/30 09:36:08;;;;;;;;;;;;;;;18.41;86.76;100699.19;107700;277;98259;-54
2023/09/30 09:38:48;;;;;;;;;;;;;;;18.42;86.74;100704.61;107708;276;119648;-54
2023/09/30 09:41:24;;;;;;;;;;;;;;;18.39;87.05;100709.98;107671;276;105212;-58
2023/09/30 09:44:00;;;;;;;;;;;;;;;18.33;87.03;100714.51;107704;276;113133;-57
2023/09/30 09:46:36;;;;;;;;;;;;;;;18.33;87.08;100716.02;107729;276;95545;-54
2023/09/30 09:49:08;;;;;;;;;;;;;;;18.35;87.27;100720.55;107671;276;97586;-55
2023/09/30 09:51:43;;;;;;;;;;;;;;;18.38;87.45;100724.66;107693;276;120548;-54
2023/09/30 09:54:15;;;;;;;;;;;;;;;18.38;87.38;100727.51;107686;276;103629;-54
2023/09/30 09:56:54;;;;;;;;;;;;;;;18.38;87.62;100729.70;107635;276;114847;-54
2023/09/30 09:59:27;;;;;;;;;;;;;;;18.40;87.72;100731.40;107622;276;96868;-55
2023/09/30 10:02:06;;;;;;;;;;;;;;;18.36;87.70;100730.48;107687;277;96352;-54
2023/09/30 10:04:40;;;;;;;;;;;;;;;18.36;87.78;100734.45;107637;276;120938;-54
2023/09/30 10:07:19;;;;;;;;;;;;;;;18.36;88.11;100737.77;107657;276;105999;-54
2023/09/30 10:09:53;;;;;;;;;;;;;;;18.35;88.18;100737.23;107654;276;114646;-55
2023/09/30 10:12:26;;;;;;;;;;;;;;;18.35;88.26;100745.15;107672;277;97162;-60
2023/09/30 10:15:24;;;;;;;;;;;;;;;18.35;88.26;100753.70;107671;276;96426;-59
2023/09/30 10:18:06;;;;;;;;;;;;;;;18.35;88.51;100759.16;107639;276;121336;-55
2023/09/30 10:20:51;;;;;;;;;;;;;;;18.29;88.74;100765.33;107939;277;103678;-57
2023/09/30 10:24:06;;;;;;;;;;;;;;;18.33;88.69;100774.64;108654;277;112446;-58
2023/09/30 10:26:43;;;;;;;;;;;;;;;18.32;88.91;100776.59;108289;276;94678;-59
2023/09/30 10:29:20;;;;;;;;;;;;;;;18.30;88.59;100782.17;108052;277;96841;-59
2023/09/30 10:31:56;;;;;;;;;;;;;;;18.22;88.38;100788.74;108016;276;121826;-58
2023/09/30 10:34:32;;;;;;;;;;;;;;;18.09;88.57;100793.87;108147;276;105022;-60
2023/09/30 10:37:20;;;;;;;;;;;;;;;18.07;88.51;100795.95;107494;277;115128;-55
2023/09/30 10:39:58;;;;;;;;;;;;;;;18.00;88.52;100808.58;107469;277;96644;-54
2023/09/30 10:43:00;;;;;;;;;;;;;;;17.94;88.37;100816.59;107667;276;97271;-56
2023/09/30 10:45:49;;;;;;;;;;;;;;;17.86;88.44;100820.05;107669;276;120367;-57
2023/09/30 10:48:38;;;;;;;;;;;;;;;17.83;88.35;100819.48;107654;276;106117;-59
2023/09/30 10:51:14;;;;;;;;;;;;;;;17.82;88.25;100823.45;107681;276;113095;-57
2023/09/30 10:53:47;;;;;;;;;;;;;;;17.87;88.36;100825.84;107645;277;97501;-57
2023/09/30 10:56:23;;;;;;;;;;;;;;;17.97;88.36;100826.52;107657;277;97040;-55
2023/09/30 10:59:01;;;;;;;;;;;;;;;18.07;88.13;100834.11;107635;277;120273;-54
2023/09/30 11:01:38;;;;;;;;;;;;;;;18.01;87.76;100840.11;107641;277;104548;-56
2023/09/30 11:04:12;;;;;;;;;;;;;;;17.94;87.59;100844.14;107639;276;114091;-56
2023/09/30 11:06:51;;;;;;;;;;;;;;;17.88;87.54;100852.10;107937;277;96852;-59
2023/09/30 11:09:24;;;;;;;;;;;;;;;17.86;87.36;100858.38;107995;276;96817;-58
2023/09/30 11:11:59;;;;;;;;;;;;;;;17.78;87.24;100858.69;107747;276;119468;-62
2023/09/30 11:14:36;;;;;;;;;;;;;;;17.72;87.03;100863.02;107692;277;104502;-62
2023/09/30 11:17:13;;;;;;;;;;;;;;;17.60;86.78;100864.10;107677;277;114819;-62
2023/09/30 11:19:52;;;;;;;;;;;;;;;17.55;86.75;100864.22;107654;277;96163;-62
2023/09/30 11:22:28;;;;;;;;;;;;;;;17.64;86.80;100865.71;107727;277;97318;-62
2023/09/30 11:25:03;;;;;;;;;;;;;;;17.61;86.70;100866.50;107702;277;120141;-61
2023/09/30 11:27:37;;;;;;;;;;;;;;;17.66;86.64;100865.45;107642;276;106718;-61
2023/09/30 11:30:15;;;;;;;;;;;;;;;17.69;86.54;100867.64;107643;276;114295;-61
2023/09/30 11:32:45;;;;;;;;;;;;;;;17.80;86.60;100862.29;107668;277;96956;-62
2023/09/30 11:35:28;;;;;;;;;;;;;;;17.96;86.97;100862.00;107667;276;98474;-56
2023/09/30 11:38:05;;;;;;;;;;;;;;;18.21;86.76;100863.20;107662;276;119344;-57
2023/09/30 11:40:40;;;;;;;;;;;;;;;18.42;86.86;100865.24;107689;276;104959;-61
2023/09/30 11:43:17;;;;;;;;;;;;;;;18.52;86.48;100871.14;107630;277;114108;-62
2023/09/30 11:46:04;;;;;;;;;;;;;;;18.51;86.22;100866.19;107589;277;96476;-62
2023/09/30 11:48:40;;;;;;;;;;;;;;;18.48;85.88;100873.91;107660;277;97949;-63
2023/09/30 11:51:14;;;;;;;;;;;;;;;18.43;85.48;100876.52;107657;276;120942;-56
2023/09/30 11:53:50;;;;;;;;;;;;;;;18.28;85.42;100875.27;107670;276;105333;-56
2023/09/30 11:56:30;;;;;;;;;;;;;;;18.32;85.28;100870.60;107649;277;115042;-60
2023/09/30 11:59:05;;;;;;;;;;;;;;;18.44;85.22;100862.45;107070;276;839883;-59
2023/09/30 12:01:44;;;;;;;;;;;;;;;18.54;85.30;100857.85;107653;277;99915;-61
2023/09/30 12:04:18;;;;;;;;;;;;;;;18.62;85.09;100849.28;107784;277;119099;-60
2023/09/30 12:06:55;;;;;;;;;;;;;;;18.79;84.81;100855.33;107578;276;104442;-56
2023/09/30 12:09:28;;;;;;;;;;;;;;;18.91;84.50;100856.37;107520;277;117701;-56
2023/09/30 12:11:59;;;;;;;;;;;;;;;19.00;84.00;100857.30;107733;276;94655;-56
2023/09/30 12:14:31;;;;;;;;;;;;;;;18.96;83.64;100859.95;107665;276;98290;-57
2023/09/30 12:17:04;;;;;;;;;;;;;;;19.16;83.58;100858.61;107732;276;120424;-61
2023/09/30 12:19:43;;;;;;;;;;;;;;;19.37;83.23;100853.30;108400;276;104515;-59
2023/09/30 12:22:18;;;;;;;;;;;;;;;19.64;82.59;100861.44;107731;276;113545;-54
2023/09/30 12:24:52;;;;;;;;;;;;;;;19.62;81.63;100862.07;107647;276;95866;-56
2023/09/30 12:27:29;;;;;;;;;;;;;;;19.49;81.16;100861.58;108269;276;97394;-60
2023/09/30 12:30:04;;;;;;;;;;;;;;;19.44;80.81;100862.48;108345;277;120232;-59
2023/09/30 12:32:39;;;;;;;;;;;;;;;19.37;80.51;100864.06;107681;276;105498;-58
2023/09/30 12:35:10;;;;;;;;;;;;;;;19.33;80.10;100863.23;107480;277;114559;-58
2023/09/30 12:37:45;;;;;;;;;;;;;;;19.19;79.49;100860.66;107668;276;93855;-59
2023/09/30 12:40:17;;;;;;;;;;;;;;;19.16;79.15;100852.33;107716;276;97380;-57
2023/09/30 12:42:50;;;;;;;;;;;;;;;19.07;79.01;100853.62;107632;276;120062;-58
2023/09/30 12:45:26;;;;;;;;;;;;;;;19.04;78.73;100851.45;107686;276;105706;-54
2023/09/30 12:48:00;;;;;;;;;;;;;;;18.90;78.73;100855.63;107648;276;114965;-54
2023/09/30 12:50:40;;;;;;;;;;;;;;;18.88;78.79;100861.10;107670;276;94544;-58
2023/09/30 12:53:17;;;;;;;;;;;;;;;18.95;78.84;100861.58;107697;277;97452;-58
2023/09/30 12:55:51;;;;;;;;;;;;;;;19.11;78.65;100856.63;107700;277;121000;-57
2023/09/30 12:58:27;;;;;;;;;;;;;;;19.22;78.51;100859.06;107679;277;105070;-58
2023/09/30 13:01:06;;;;;;;;;;;;;;;19.44;78.33;100859.41;107664;276;113580;-59
2023/09/30 13:03:42;;;;;;;;;;;;;;;19.61;77.99;100858.05;107689;276;94003;-58
2023/09/30 13:06:17;;;;;;;;;;;;;;;19.73;77.76;100855.38;107822;277;95944;-60
2023/09/30 13:08:54;;;;;;;;;;;;;;;19.82;77.34;100855.80;107890;276;119030;-60
2023/09/30 13:11:31;;;;;;;;;;;;;;;19.90;76.81;100853.96;107786;276;104893;-60
2023/09/30 13:14:02;;;;;;;;;;;;;;;19.97;75.90;100851.88;107998;276;112986;-60
2023/09/30 13:16:36;;;;;;;;;;;;;;;19.98;74.75;100849.29;107515;277;91761;-57